TOURFACTS.DK  
Stats and Facts from Tour de France.

Tour de France 2018 starts in 13 days
  Riders   Stages   Teams   Summits   Yearly  


 
Search by year

After 2017 - Stage 21:
 14824 starters.
  5132 different riders.
  639 teams.
  2232 stages.
  456 restdays.
  439589.60 km.
  5653 abandonnees.


Top 3
GC
Christopher Froome86:20:55
Rigoberto Urán86:21:49
Romain Bardet86:23:15
Climb
Warren Barguil169 pt.
Primoz Roglic80 pt.
Thomas De Gendt64 pt.
Sprint
Michael Matthews359 pt.
André Greipel234 pt.
Edvald Boasson Hagen220 pt.
Youth
Simon Yates86:27:09
Louis Meintjes86:29:15
Emanuel Buchmann86:54:16
Facts from Tour de France 2010
  |   Stages.  |   Stage winners.  |   Days in yellow  |   Average speed.  |   Route.  |   Teams.  |   All riders.  |   Rookies.  |  

  |   Withdrawls.  |   GC.  |   Polka  |   Green  |   White  |   Summits. (In tour)  |   Miscellaneous.  |  

Stage 12 on 16 - 07 - 2010
         Owning:    Andy Schleck    
Pick a stage:  Pro 1 2 3 4 5 6 7 8 9 10 11 12 13 14 15 16 17 18 19 20
  Bourg-de-PéageMende | Dist: 210.50 km.
Cat: 3Côte de Saint Barthalamy le PlainFRAPierrick Fédrigo
4 points
 
Cat: 3NoniaresFRAAnthony Charteau
4 points
 
Cat: 2Col de MontivernouxFRASandy Casar
10 points
 
Cat: 3Côte de MoulinFRAAnthony Charteau
4 points
 
Cat: 2Côte de Croix NeuveESPAlberto Contador
20 points
 

Average speed for all riders in stage:  41,529 km./hr.
    Place:Name:Team:Time:Km/h:
ESPJoaquim RodriguezRUSTeam Katusha04:58:26  +  00:00:00=42,321 
ESPAlberto ContadorKAZAstana Pro Team04:58:26  +  00:00:00=42,321 
KAZAlexandre VinokourovKAZAstana Pro Team04:58:30  +  00:00:04=42,312 
4 BELJurgen Van Den BroeckBELOmega Pharma - Lotto04:58:36  +  00:00:10=42,297 
5 LUXAndy SchleckDNKTeam Saxo Bank04:58:36  +  00:00:10=42,297 
6 ESPSamuel SanchezESPEuskaltel - Euskadi04:58:36  +  00:00:10=42,297 
7 GERAndréas KlödenUSATeam Radio Shack04:58:36  +  00:00:10=42,297 
8 RUSDenis MenchovNLDRabobank04:58:36  +  00:00:10=42,297 
9 NEDRobert GesinkNLDRabobank04:58:41  +  00:00:15=42,286 
10 CZERoman KreuzigerITALiquigas-Doimo04:58:41  +  00:00:15=42,286 
11 USALevi LeipheimerUSATeam Radio Shack04:58:43  +  00:00:17=42,281 
12 ESPRubén PlazaESPCaisse d´Epargne04:58:57  +  00:00:31=42,248 
13 ITADamiano CunegoITALampre-Farnese Vini04:58:57  +  00:00:31=42,248 
14 BELBradley WigginsGBRSky Procycling04:58:57  +  00:00:31=42,248 
15 AUSCadel EvansUSABMC Racing Team04:58:57  +  00:00:31=42,248 
16 ITAIvan BassoITALiquigas-Doimo04:58:57  +  00:00:31=42,248 
17 JPNChristopher HornerUSATeam Radio Shack04:58:57  +  00:00:31=42,248 
18 ESPCarlos SastreCHECervelo Test Team04:58:57  +  00:00:31=42,248 
19 ESPLuis León SánchezESPCaisse d´Epargne04:58:57  +  00:00:31=42,248 
20 FRANicolas RocheFRAAg2r La Mondiale04:58:57  +  00:00:31=42,248 
21 SWEThomas LövkvistGBRSky Procycling04:58:57  +  00:00:31=42,248 
22 BLRVasil KiryienkaESPCaisse d´Epargne04:59:14  +  00:00:48=42,208 
23 AUSMichael RogersUSATeam Columbia-HTC04:59:19  +  00:00:53=42,196 
24 CANRyder HesjedalUSAGarmin-Transitions04:59:19  +  00:00:53=42,196 
25 FRAChristophe Le MevelFRAFrancaise Des Jeux04:59:19  +  00:00:53=42,196 
26 FRAJohn GadretFRAAg2r La Mondiale04:59:19  +  00:00:53=42,196 
27 FRACyril GautierFRABbox Bouygues Telecom04:59:19  +  00:00:53=42,196 
28 FRASylvain ChavanelBELQuick Step04:59:37  +  00:01:11=42,154 
29 BELKevin De WeertBELQuick Step04:59:37  +  00:01:11=42,154 
30 ITAEros CapecchiESPFooton-Servetto04:59:37  +  00:01:11=42,154 
31 FRAChristophe MoreauESPCaisse d´Epargne04:59:37  +  00:01:11=42,154 
32 ESPIvan VelascoESPEuskaltel - Euskadi04:59:46  +  00:01:20=42,133 
33 FRADamien MonierFRACofidis Le Credit En Ligne04:59:52  +  00:01:26=42,119 
34 AUTThomas RohreggerDEUTeam Milram04:59:52  +  00:01:26=42,119 
35 BELJohan VansummerenUSAGarmin-Transitions05:00:05  +  00:01:39=42,088 
36 ESPJuan Manuel GarateNLDRabobank05:00:05  +  00:01:39=42,088 
37 RUSEduard VorganovRUSTeam Katusha05:00:05  +  00:01:39=42,088 
38 BELKevin SeeldraeyersBELQuick Step05:00:09  +  00:01:43=42,079 
39 FRAPierre RollandFRABbox Bouygues Telecom05:00:21  +  00:01:55=42,051 
40 ESPDaniel MorenoBELOmega Pharma - Lotto05:00:21  +  00:01:55=42,051 
41 FRARémy Di GrégorioFRAFrancaise Des Jeux05:00:21  +  00:01:55=42,051 
42 BELDries DevenynsBELQuick Step05:00:35  +  00:02:09=42,018 
43 RUSAlexandr KolobnevRUSTeam Katusha05:00:40  +  00:02:14=42,007 
44 BLRKanstantin SivtsovUSATeam Columbia-HTC05:00:40  +  00:02:14=42,007 
45 NEDBram TankinkNLDRabobank05:00:40  +  00:02:14=42,007 
46 POLSylvester SzmydITALiquigas-Doimo05:00:40  +  00:02:14=42,007 
47 ITAPaolo TiralongoKAZAstana Pro Team05:00:40  +  00:02:14=42,007 
48 BELSerge PauwelsGBRSky Procycling05:00:43  +  00:02:17=42,000 
49 ESPJosé Joaquin RojasESPCaisse d´Epargne05:00:43  +  00:02:17=42,000 
50 ESPEgoi MartínezESPEuskaltel - Euskadi05:00:43  +  00:02:17=42,000 
51 UKRVolodymir GustovCHECervelo Test Team05:01:13  +  00:02:47=41,930 
52 FRAThomas VoecklerFRABbox Bouygues Telecom05:01:13  +  00:02:47=41,930 
53 MDAAlexandr PliuschinRUSTeam Katusha05:01:31  +  00:03:05=41,888 
54 FRARémi PauriolFRACofidis Le Credit En Ligne05:02:01  +  00:03:35=41,819 
55 SLOJanez BrajkovicUSATeam Radio Shack05:02:01  +  00:03:35=41,819 
56 FRASandy CasarFRAFrancaise Des Jeux05:02:01  +  00:03:35=41,819 
57 USALance ArmstrongUSATeam Radio Shack05:02:01  +  00:03:35=41,819 
58 BELMaarten WynantsBELQuick Step05:02:01  +  00:03:35=41,819 
59 NEDKoos MoerenhoutNLDRabobank05:02:01  +  00:03:35=41,819 
60 FRAJulien El FarèsFRACofidis Le Credit En Ligne05:02:01  +  00:03:35=41,819 
61 SUIJakob FuglsangDNKTeam Saxo Bank05:02:01  +  00:03:35=41,819 
62 FRANicolas VogondyFRABbox Bouygues Telecom05:02:01  +  00:03:35=41,819 
63 SUISteve MorabitoUSABMC Racing Team05:02:01  +  00:03:35=41,819 
64 USAGeorge HincapieUSABMC Racing Team05:02:01  +  00:03:35=41,819 
65 ESPAitor PerezESPFooton-Servetto05:02:01  +  00:03:35=41,819 
66 FRAChristophe RiblonFRAAg2r La Mondiale05:02:01  +  00:03:35=41,819 
67 PORSergio PaulinhoUSATeam Radio Shack05:02:01  +  00:03:35=41,819 
68 GERGrischa NiermannNLDRabobank05:02:01  +  00:03:35=41,819 
69 FRASébastien TurgotFRABbox Bouygues Telecom05:02:27  +  00:04:01=41,759 
70 RUSSerguei IvanovRUSTeam Katusha05:02:41  +  00:04:15=41,727 
71 DENChris Anker SørensenDNKTeam Saxo Bank05:02:41  +  00:04:15=41,727 
72 RUSPavel BruttRUSTeam Katusha05:02:41  +  00:04:15=41,727 
73 ESPDavid De La FuenteKAZAstana Pro Team05:02:41  +  00:04:15=41,727 
74 FRAMathieu PergetESPCaisse d´Epargne05:03:44  +  00:05:18=41,583 
75 BELFrancis De GreefBELOmega Pharma - Lotto05:03:51  +  00:05:25=41,567 
76 GERSebastian LangBELOmega Pharma - Lotto05:03:51  +  00:05:25=41,567 
77 FRAPierrick FédrigoFRABbox Bouygues Telecom05:03:51  +  00:05:25=41,567 
78 BELMaxime MonfortUSATeam Columbia-HTC05:03:51  +  00:05:25=41,567 
79 UKRYaroslav PopovychUSATeam Radio Shack05:03:51  +  00:05:25=41,567 
80 ITAFrancesco GavazziITALampre-Farnese Vini05:03:51  +  00:05:25=41,567 
81 ESPBenjamin NovalKAZAstana Pro Team05:03:51  +  00:05:25=41,567 
82 KAZMaxim IglinskiyKAZAstana Pro Team05:03:51  +  00:05:25=41,567 
83 UKRAndriy GrivkoKAZAstana Pro Team05:03:51  +  00:05:25=41,567 
84 BELJürgen RoelandtsBELOmega Pharma - Lotto05:03:51  +  00:05:25=41,567 
85 ITAMauro Da DaltoITALampre-Farnese Vini05:03:51  +  00:05:25=41,567 
86 GERJohannes FröhlingerDEUTeam Milram05:03:51  +  00:05:25=41,567 
87 FRAJérôme PineauBELQuick Step05:03:51  +  00:05:25=41,567 
88 BELJurgen Van De WalleBELQuick Step05:03:51  +  00:05:25=41,567 
89 AUSWesley SulzbergerFRAFrancaise Des Jeux05:03:51  +  00:05:25=41,567 
90 ESPJosé Ivan GutierrezESPCaisse d´Epargne05:03:51  +  00:05:25=41,567 
91 CANMichael BarryGBRSky Procycling05:03:51  +  00:05:25=41,567 
92 FRAMatthieu SprickFRABbox Bouygues Telecom05:03:51  +  00:05:25=41,567 
93 FRAAnthony CharteauFRABbox Bouygues Telecom05:03:51  +  00:05:25=41,567 
94 BELMario AertsBELOmega Pharma - Lotto05:03:51  +  00:05:25=41,567 
95 ITARinaldo NocentiniFRAAg2r La Mondiale05:03:51  +  00:05:25=41,567 
96 SUIMartin ElmigerFRAAg2r La Mondiale05:03:51  +  00:05:25=41,567 
97 AUSMatthew LloydBELOmega Pharma - Lotto05:03:51  +  00:05:25=41,567 
98 ITAMauro SantambrogioUSABMC Racing Team05:03:51  +  00:05:25=41,567 
99 NEDMaarten TjallingiiNLDRabobank05:03:51  +  00:05:25=41,567 
100 SUIGregory RastUSATeam Radio Shack05:03:51  +  00:05:25=41,567 
101 ITAAlessandro BallanUSABMC Racing Team05:03:51  +  00:05:25=41,567 
102 ESPArkaitz DuranESPFooton-Servetto05:03:51  +  00:05:25=41,567 
103 FRAMatthieu LadagnousFRAFrancaise Des Jeux05:03:51  +  00:05:25=41,567 
104 WALGeraint ThomasGBRSky Procycling05:03:51  +  00:05:25=41,567 
105 JPNYukiya ArashiroFRABbox Bouygues Telecom05:03:51  +  00:05:25=41,567 
106 ESPDaniel NavarroKAZAstana Pro Team05:03:51  +  00:05:25=41,567 
107 ESPJesus  HernandezKAZAstana Pro Team05:03:51  +  00:05:25=41,567 
108 ITAAlessandro PetacchiITALampre-Farnese Vini05:03:51  +  00:05:25=41,567 
109 ESPJosé BenitezESPFooton-Servetto05:03:51  +  00:05:25=41,567 
110 ITADaniel OssITALiquigas-Doimo05:03:51  +  00:05:25=41,567 
111 AUSBrett LancasterCHECervelo Test Team05:03:51  +  00:05:25=41,567 
112 GERChristian KneesDEUTeam Milram05:03:59  +  00:05:33=41,548 
113 AUSLuke RobertsDEUTeam Milram05:03:59  +  00:05:33=41,548 
114 GERFabian WegmannDEUTeam Milram05:03:59  +  00:05:33=41,548 
115 ESPImanol ErvitiESPCaisse d´Epargne05:03:59  +  00:05:33=41,548 
116 ESPAlan PerezESPEuskaltel - Euskadi05:03:59  +  00:05:33=41,548 
117 FRALloyd MondoryFRAAg2r La Mondiale05:04:04  +  00:05:38=41,537 
118 ESPRafael Valls FerriESPFooton-Servetto05:04:04  +  00:05:38=41,537 
119 ESPCarlos BarredoBELQuick Step05:04:04  +  00:05:38=41,537 
120 PORRui CostaESPCaisse d´Epargne05:04:04  +  00:05:38=41,537 
121 URSRein TaaramäeFRACofidis Le Credit En Ligne05:04:04  +  00:05:38=41,537 
122 FRABenoit VaugrenardFRAFrancaise Des Jeux05:04:08  +  00:05:42=41,528 
123 FRAMaxime BouetFRAAg2r La Mondiale05:04:09  +  00:05:43=41,526 
124 FRADimitri ChampionFRAAg2r La Mondiale05:04:57  +  00:06:31=41,417 
125 ESPIñaki Isasi FloresESPEuskaltel - Euskadi05:04:58  +  00:06:32=41,414 
126 URSIgnatas KonovalovasCHECervelo Test Team05:04:58  +  00:06:32=41,414 
127 GERTony MartinUSATeam Columbia-HTC05:04:58  +  00:06:32=41,414 
128 ITAFrancesco RedaBELQuick Step05:04:58  +  00:06:32=41,414 
129 NEDKarsten KroonUSABMC Racing Team05:05:01  +  00:06:35=41,408 
130 USABrent BookwalterUSABMC Racing Team05:05:01  +  00:06:35=41,408 
131 AUTBernhard EiselUSATeam Columbia-HTC05:05:18  +  00:06:52=41,369 
132 FRAAnthony GeslinFRAFrancaise Des Jeux05:05:18  +  00:06:52=41,369 
133 ESPRuben PerezESPEuskaltel - Euskadi05:05:28  +  00:07:02=41,347 
134 ENGStephen CummingsGBRSky Procycling05:05:45  +  00:07:19=41,308 
135 FRASébastien MinardFRACofidis Le Credit En Ligne05:05:45  +  00:07:19=41,308 
136 ESPÓscar Freire GómezNLDRabobank05:06:44  +  00:08:18=41,176 
137 SLOGrega BoleITALampre-Farnese Vini05:06:55  +  00:08:29=41,151 
138 GERDanilo HondoITALampre-Farnese Vini05:06:55  +  00:08:29=41,151 
139 DENNicki SørensenDNKTeam Saxo Bank05:07:53  +  00:09:27=41,022 
140 AUSStuart O'GradyDNKTeam Saxo Bank05:07:53  +  00:09:27=41,022 
141 SLOKristjan KorenITALiquigas-Doimo05:07:53  +  00:09:27=41,022 
142 SLOSimon SpilakITALampre-Farnese Vini05:07:53  +  00:09:27=41,022 
143 ESPGorka VerdugoESPEuskaltel - Euskadi05:07:53  +  00:09:27=41,022 
144 NZLJulian DeanUSAGarmin-Transitions05:07:53  +  00:09:27=41,022 
145 GERLinus GerdemannDEUTeam Milram05:08:38  +  00:10:12=40,922 
146 NOREdvald Boasson HagenGBRSky Procycling05:08:46  +  00:10:20=40,905 
147 NORThor HushovdCHECervelo Test Team05:08:46  +  00:10:20=40,905 
148 DENBrian VandborgITALiquigas-Doimo05:08:46  +  00:10:20=40,905 
149 GERJens VoigtDNKTeam Saxo Bank05:08:46  +  00:10:20=40,905 
150 DENMatti BreschelDNKTeam Saxo Bank05:08:46  +  00:10:20=40,905 
151 ITAManuel QuinziatoITALiquigas-Doimo05:08:46  +  00:10:20=40,905 
152 ENGDaniel LloydCHECervelo Test Team05:08:46  +  00:10:20=40,905 
153 FRAAmaël MoinardFRACofidis Le Credit En Ligne05:08:46  +  00:10:20=40,905 
154 ESPIban MayozESPFooton-Servetto05:08:46  +  00:10:20=40,905 
155 GERAndreas KlierCHECervelo Test Team05:08:46  +  00:10:20=40,905 
156 CANJeremy HuntCHECervelo Test Team05:08:46  +  00:10:20=40,905 
157 KAZDmitriy MuravyevUSATeam Radio Shack05:09:17  +  00:10:51=40,836 
158 ARGJuan Antonio FlechaGBRSky Procycling05:10:36  +  00:12:10=40,663 
159 ITAFrancesco BellottiITALiquigas-Doimo05:10:36  +  00:12:10=40,663 
160 GERGerald CiolekDEUTeam Milram05:10:36  +  00:12:10=40,663 
161 USADavid ZabriskieUSAGarmin-Transitions05:11:05  +  00:12:39=40,600 
162 IOMMark CavendishUSATeam Columbia-HTC05:11:05  +  00:12:39=40,600 
163 NEDMartijn MaaskantUSAGarmin-Transitions05:11:05  +  00:12:39=40,600 
164 FRAStéphane AugeFRACofidis Le Credit En Ligne05:11:05  +  00:12:39=40,600 
165 MLTDavid MillarUSAGarmin-Transitions05:11:05  +  00:12:39=40,600 
166 FRAJérémy RoyFRAFrancaise Des Jeux05:11:05  +  00:12:39=40,600 
167 ITAMirco LorenzettoITALampre-Farnese Vini05:11:26  +  00:13:00=40,554 
168 ITAAdriano MaloriITALampre-Farnese Vini05:11:26  +  00:13:00=40,554 
169 GERMarcus BurghardtUSABMC Racing Team05:11:42  +  00:13:16=40,520 
170 SUIFabian CancellaraDNKTeam Saxo Bank05:12:09  +  00:13:43=40,461 
171 FRAAnthony RouxFRAFrancaise Des Jeux05:12:14  +  00:13:48=40,451 
172 FRAChristophe KernFRACofidis Le Credit En Ligne05:13:47  +  00:15:21=40,251 
173 BLRAliaksandr KuchynskiITALiquigas-Doimo05:18:03  +  00:19:37=39,711 
174 NEDLars BoomNLDRabobank05:24:44  +  00:26:18=38,893 
175 GERBert GrabschUSATeam Columbia-HTC05:25:03  +  00:26:37=38,856 
176 AUSRobbie McEwenRUSTeam Katusha05:25:03  +  00:26:37=38,856 

Withdrawls: 2
 
Rider
Team
Reason
53  USATyler FarrarUSAGarmin-TransitionsDid not finish
173  FRASamuel DumoulinFRACofidis Le Credit En LigneDid not start

Todays birthdays.

1895  François Colomines
1901  Victor Pellier
1921  Maurice Carpentier
1921  Hans Hutmacher
1924  Norbert Callens
1928  Armand Baeyens
1933  Adriano Zamboni
1944  Ercole Gualazzini
1952  Jose Lopez
1956  Alfons De Wolf
1958  Sergio Jaramillo
1961  José Vieira
1963  Luigi Furlan
1972  Dariusz Baranowski
1973  Cyril Saugrain
1975  Andréas Klöden
1977  Angelo Furlan
1979  Thomas Voeckler
1983  Jérémy Roy




Visits: